Time;durP1;ratioP1;P1;durP2;ratioP2;P2;SDS_P1;SDS_P2;PMS_P1;PMS_P2;Temp;Humidity;BMP_temperature;BMP_pressure;BME280_temperature;BME280_humidity;BME280_pressure;Samples;Min_cycle;Max_cycle;Signal;HPM_P1;HPM_P2
2023/08/01 00:00:14;;;;;;;3.95;0.98;;;18.30;99.90;;;;;;5030733;28;20044;-57
2023/08/01 00:02:42;;;;;;;5.25;4.85;;;18.20;99.90;;;;;;5030308;28;20025;-57
2023/08/01 00:05:09;;;;;;;3.50;1.90;;;18.20;99.90;;;;;;5033221;28;20151;-58
2023/08/01 00:07:35;;;;;;;1.60;0.90;;;18.10;99.90;;;;;;5035402;28;20032;-56
2023/08/01 00:10:00;;;;;;;5.95;0.93;;;18.10;99.90;;;;;;5035555;28;20413;-57
2023/08/01 00:12:27;;;;;;;6.28;5.78;;;18.10;99.90;;;;;;5036839;28;20037;-55
2023/08/01 00:14:53;;;;;;;1.88;0.50;;;18.20;99.90;;;;;;5041726;28;20048;-57
2023/08/01 00:17:18;;;;;;;4.53;1.25;;;18.20;99.90;;;;;;5040745;28;20045;-57
2023/08/01 00:19:44;;;;;;;3.03;0.85;;;18.10;99.90;;;;;;5041352;28;20029;-55
2023/08/01 00:22:09;;;;;;;4.00;0.90;;;18.00;99.90;;;;;;5039265;28;20029;-57
2023/08/01 00:24:35;;;;;;;1.38;0.70;;;18.00;99.90;;;;;;5034448;28;20037;-58
2023/08/01 00:27:01;;;;;;;2.53;2.17;;;17.90;99.90;;;;;;5038864;28;20021;-57
2023/08/01 00:29:27;;;;;;;1.58;1.48;;;18.00;99.90;;;;;;5013165;28;20040;-57
2023/08/01 00:31:52;;;;;;;2.50;0.70;;;18.00;99.90;;;;;;5036471;28;20461;-56
2023/08/01 00:34:18;;;;;;;0.90;0.70;;;18.10;99.90;;;;;;5035389;28;20072;-56
2023/08/01 00:36:43;;;;;;;1.85;1.08;;;18.10;99.90;;;;;;5033508;28;20473;-57
2023/08/01 00:39:09;;;;;;;1.98;0.90;;;18.20;99.90;;;;;;5041096;28;20052;-57
2023/08/01 00:41:35;;;;;;;3.60;0.90;;;18.30;99.90;;;;;;5033208;28;20037;-57
2023/08/01 00:44:00;;;;;;;5.72;1.08;;;18.30;99.90;;;;;;5028640;28;20034;-56
2023/08/01 00:46:26;;;;;;;5.22;1.27;;;18.20;99.90;;;;;;5030747;28;20034;-57
2023/08/01 00:48:53;;;;;;;3.47;1.42;;;18.10;99.90;;;;;;5041822;28;20033;-57
2023/08/01 00:51:19;;;;;;;6.18;5.75;;;18.20;99.90;;;;;;5041725;28;20032;-56
2023/08/01 00:53:46;;;;;;;3.60;3.40;;;18.30;99.90;;;;;;5031760;28;20022;-55
2023/08/01 00:56:11;;;;;;;0.55;0.55;;;18.30;99.90;;;;;;5038334;28;20095;-57
2023/08/01 00:58:37;;;;;;;1.92;1.83;;;18.10;99.90;;;;;;5039613;28;20049;-58
2023/08/01 01:01:03;;;;;;;1.63;1.52;;;18.20;99.90;;;;;;5045384;28;20041;-56
2023/08/01 01:03:29;;;;;;;0.95;0.95;;;18.20;99.90;;;;;;5036578;28;20112;-55
2023/08/01 01:06:17;;;;;;;0.68;0.68;;;18.30;99.90;;;;;;5030646;28;20037;-56
2023/08/01 01:08:43;;;;;;;5.15;4.85;;;18.30;99.90;;;;;;5042376;28;20083;-57
2023/08/01 01:11:08;;;;;;;3.15;2.95;;;18.30;99.90;;;;;;5042164;28;20029;-57
2023/08/01 01:13:34;;;;;;;4.00;2.00;;;18.30;99.90;;;;;;5036686;28;20140;-57
2023/08/01 01:16:00;;;;;;;4.53;2.25;;;18.30;99.90;;;;;;5036942;28;20029;-56
2023/08/01 01:18:25;;;;;;;6.80;1.98;;;18.30;99.90;;;;;;5044389;28;20044;-57
2023/08/01 01:20:51;;;;;;;7.72;2.30;;;18.30;99.90;;;;;;5046421;28;20564;-57
2023/08/01 01:23:19;;;;;;;4.80;2.17;;;18.20;99.90;;;;;;5045280;28;20044;-57
2023/08/01 01:25:46;;;;;;;2.03;1.17;;;18.20;99.90;;;;;;5045485;28;20029;-57
2023/08/01 01:28:13;;;;;;;1.27;1.25;;;18.20;99.90;;;;;;5037526;28;20030;-57
2023/08/01 01:30:39;;;;;;;2.70;1.98;;;18.30;99.90;;;;;;5045176;28;20048;-57
2023/08/01 01:33:05;;;;;;;1.92;1.40;;;18.20;99.90;;;;;;5046165;28;20037;-57
2023/08/01 01:35:34;;;;;;;1.60;0.93;;;18.20;99.90;;;;;;5045944;28;20465;-57
2023/08/01 01:38:03;;;;;;;4.25;3.03;;;18.20;99.90;;;;;;5039913;28;20095;-58
2023/08/01 01:40:32;;;;;;;0.00;0.00;;;18.10;99.90;;;;;;5043408;28;20337;-57
2023/08/01 01:42:58;;;;;;;8.48;7.90;;;18.20;99.90;;;;;;5041653;28;20036;-57
2023/08/01 01:45:24;;;;;;;7.82;6.90;;;17.90;99.90;;;;;;5042827;28;20116;-56
2023/08/01 01:47:49;;;;;;;6.30;4.72;;;17.40;99.90;;;;;;5042490;28;20124;-57
2023/08/01 01:50:15;;;;;;;8.98;3.90;;;17.10;99.90;;;;;;5043631;28;20470;-56
2023/08/01 01:52:41;;;;;;;8.95;4.50;;;17.00;99.90;;;;;;5037595;28;20575;-59
2023/08/01 01:55:07;;;;;;;9.68;5.47;;;17.00;99.90;;;;;;5033133;28;20041;-60
2023/08/01 01:57:33;;;;;;;8.85;6.10;;;16.90;99.90;;;;;;5043247;28;20488;-56
2023/08/01 01:59:58;;;;;;;11.23;6.78;;;16.90;99.90;;;;;;5043860;28;20041;-57
2023/08/01 02:02:24;;;;;;;6.30;5.03;;;16.90;99.90;;;;;;5042270;28;20032;-62
2023/08/01 02:04:50;;;;;;;1.45;1.35;;;17.00;99.90;;;;;;5038398;28;20637;-58
2023/08/01 02:07:16;;;;;;;0.30;0.30;;;16.90;99.90;;;;;;5036719;28;20449;-55
2023/08/01 02:09:42;;;;;;;18.65;17.30;;;17.00;99.90;;;;;;5033245;28;20053;-56
2023/08/01 02:12:09;;;;;;;0.00;0.00;;;17.00;99.90;;;;;;5040642;28;20040;-56
2023/08/01 02:14:35;;;;;;;10.82;10.02;;;17.00;99.90;;;;;;5039522;28;20027;-57
2023/08/01 02:17:01;;;;;;;0.00;0.00;;;17.00;99.90;;;;;;5036540;28;20064;-57
2023/08/01 02:19:27;;;;;;;2.05;1.95;;;17.10;99.90;;;;;;5033595;28;20064;-56
2023/08/01 02:21:53;;;;;;;1.63;1.55;;;17.00;99.90;;;;;;5038604;28;20090;-56
2023/08/01 02:24:19;;;;;;;15.38;14.25;;;17.00;99.90;;;;;;5031128;28;20393;-55
2023/08/01 02:26:44;;;;;;;13.65;12.80;;;17.10;99.90;;;;;;5035252;28;20037;-56
2023/08/01 02:29:10;;;;;;;14.70;8.45;;;17.10;99.90;;;;;;5045599;28;20120;-56
2023/08/01 02:31:36;;;;;;;9.15;6.40;;;17.20;99.90;;;;;;5038194;28;20485;-57
2023/08/01 02:34:01;;;;;;;11.10;6.80;;;17.20;99.90;;;;;;5037979;28;20033;-56
2023/08/01 02:36:27;;;;;;;13.02;8.05;;;17.20;99.90;;;;;;5022309;28;20468;-56
2023/08/01 02:38:52;;;;;;;17.95;16.38;;;17.20;99.90;;;;;;5039351;28;20072;-57
2023/08/01 02:41:18;;;;;;;13.90;9.40;;;17.10;99.90;;;;;;5031802;28;20030;-56
2023/08/01 02:43:44;;;;;;;24.20;22.38;;;17.20;99.90;;;;;;5037431;28;20039;-57
2023/08/01 02:46:10;;;;;;;11.95;11.18;;;17.10;99.90;;;;;;5039366;28;20503;-57
2023/08/01 02:48:35;;;;;;;0.00;0.00;;;17.10;99.90;;;;;;5040588;28;20052;-55
2023/08/01 02:51:01;;;;;;;0.00;0.00;;;17.00;99.90;;;;;;5041519;28;20676;-56
2023/08/01 02:53:27;;;;;;;0.00;0.00;;;17.00;99.90;;;;;;5035292;28;20128;-57
2023/08/01 02:55:53;;;;;;;0.00;0.00;;;17.00;99.90;;;;;;5036886;28;20119;-55
2023/08/01 02:58:18;;;;;;;0.00;0.00;;;16.90;99.90;;;;;;5044395;28;20045;-57
2023/08/01 03:00:44;;;;;;;11.68;10.85;;;17.00;99.90;;;;;;5033817;28;20067;-56
2023/08/01 03:03:10;;;;;;;2.83;2.67;;;16.90;99.90;;;;;;5036603;28;20133;-57
2023/08/01 03:05:39;;;;;;;0.00;0.00;;;16.90;99.90;;;;;;5036247;28;20038;-56
2023/08/01 03:08:05;;;;;;;1.15;1.15;;;17.00;99.90;;;;;;5038466;28;20040;-55
2023/08/01 03:10:31;;;;;;;0.47;0.47;;;17.00;99.90;;;;;;5038847;28;20048;-55
2023/08/01 03:12:57;;;;;;;2.92;2.72;;;16.80;99.90;;;;;;5038174;28;20600;-56
2023/08/01 03:15:22;;;;;;;0.00;0.00;;;16.80;99.90;;;;;;5042554;28;20044;-56
2023/08/01 03:17:48;;;;;;;0.00;0.00;;;16.80;99.90;;;;;;5037997;28;20124;-56
2023/08/01 03:20:13;;;;;;;12.80;11.90;;;16.80;99.90;;;;;;5033852;28;20067;-55
2023/08/01 03:22:40;;;;;;;1.48;1.38;;;16.70;99.90;;;;;;5032397;28;20057;-57
2023/08/01 03:25:09;;;;;;;0.00;0.00;;;16.70;99.90;;;;;;5038072;28;20116;-56
2023/08/01 03:27:35;;;;;;;0.85;0.85;;;16.60;99.90;;;;;;5040381;28;20041;-55
2023/08/01 03:30:02;;;;;;;0.20;0.20;;;16.50;99.90;;;;;;5040728;28;20036;-56
2023/08/01 03:32:27;;;;;;;0.85;0.85;;;16.50;99.90;;;;;;5035880;28;20060;-56
2023/08/01 03:34:53;;;;;;;1.98;1.17;;;16.50;99.90;;;;;;5037484;28;20056;-57
2023/08/01 03:37:19;;;;;;;0.17;0.17;;;16.60;99.90;;;;;;5038909;28;20047;-56
2023/08/01 03:39:45;;;;;;;6.20;5.68;;;16.60;99.90;;;;;;5040312;28;20037;-57
2023/08/01 03:42:10;;;;;;;0.47;0.47;;;16.70;99.90;;;;;;5038039;28;20036;-57
2023/08/01 03:44:36;;;;;;;2.22;2.08;;;16.70;99.90;;;;;;5038010;28;20220;-57
2023/08/01 03:47:02;;;;;;;1.98;1.88;;;16.70;99.90;;;;;;5038525;28;20068;-56
2023/08/01 03:49:27;;;;;;;5.13;4.65;;;16.70;99.90;;;;;;5042730;28;20041;-55
2023/08/01 03:51:53;;;;;;;1.55;1.48;;;16.60;99.90;;;;;;5041333;28;20096;-56
2023/08/01 03:54:19;;;;;;;18.15;16.55;;;16.70;99.90;;;;;;5040799;28;20091;-54
2023/08/01 03:56:45;;;;;;;12.10;10.88;;;16.70;99.90;;;;;;5033732;28;20060;-56
2023/08/01 03:59:13;;;;;;;16.55;9.93;;;16.70;99.90;;;;;;5041117;28;20504;-56
2023/08/01 04:01:39;;;;;;;11.70;8.70;;;16.80;99.90;;;;;;5035871;28;20053;-56
2023/08/01 04:04:04;;;;;;;1.77;1.40;;;16.80;99.90;;;;;;5039538;28;20076;-56
2023/08/01 04:06:30;;;;;;;0.95;0.85;;;16.80;99.90;;;;;;5035760;28;20138;-56
2023/08/01 04:08:56;;;;;;;13.15;9.02;;;16.90;99.90;;;;;;5034964;28;20037;-56
2023/08/01 04:11:22;;;;;;;8.13;7.43;;;16.90;99.90;;;;;;5037230;28;20532;-55
2023/08/01 04:13:48;;;;;;;6.32;5.82;;;16.90;99.90;;;;;;5040981;28;20396;-56
2023/08/01 04:16:13;;;;;;;4.80;4.50;;;16.90;99.90;;;;;;5036166;28;20029;-57
2023/08/01 04:18:39;;;;;;;5.35;4.93;;;17.00;99.90;;;;;;5040657;28;20071;-56
2023/08/01 04:21:06;;;;;;;9.55;7.03;;;16.90;99.90;;;;;;5032806;28;20030;-55
2023/08/01 04:23:32;;;;;;;0.05;0.05;;;16.90;99.90;;;;;;5040952;28;20040;-57
2023/08/01 04:25:59;;;;;;;0.00;0.00;;;16.90;99.90;;;;;;5038866;28;20480;-56
2023/08/01 04:28:25;;;;;;;27.70;18.33;;;16.80;99.90;;;;;;5036316;28;20033;-56
2023/08/01 04:30:51;;;;;;;21.75;16.45;;;16.80;99.90;;;;;;5037834;28;20107;-57
2023/08/01 04:33:17;;;;;;;10.60;9.60;;;16.80;99.90;;;;;;5044000;28;20040;-55
2023/08/01 04:35:43;;;;;;;4.10;3.53;;;16.70;99.90;;;;;;5042154;28;20129;-55
2023/08/01 04:38:08;;;;;;;17.23;13.80;;;16.80;99.90;;;;;;5042252;28;20045;-56
2023/08/01 04:40:34;;;;;;;4.88;4.57;;;16.80;99.90;;;;;;5037856;28;20029;-54
2023/08/01 04:43:01;;;;;;;2.50;2.30;;;16.80;99.90;;;;;;5040181;28;20037;-57
2023/08/01 04:45:27;;;;;;;0.38;0.38;;;16.70;99.90;;;;;;5043266;28;20541;-56
2023/08/01 04:47:53;;;;;;;0.00;0.00;;;16.70;99.90;;;;;;5039605;28;20250;-55
2023/08/01 04:50:18;;;;;;;1.85;1.20;;;16.80;99.90;;;;;;5043234;28;20132;-56
2023/08/01 04:52:44;;;;;;;0.00;0.00;;;16.80;99.90;;;;;;5041530;28;20037;-55
2023/08/01 04:55:09;;;;;;;8.02;6.05;;;16.80;99.90;;;;;;5041687;28;20123;-57
2023/08/01 04:57:35;;;;;;;0.00;0.00;;;16.80;99.90;;;;;;5037551;28;20055;-56
2023/08/01 05:00:01;;;;;;;0.00;0.00;;;16.70;99.90;;;;;;5036938;28;20384;-55
2023/08/01 05:02:27;;;;;;;0.00;0.00;;;16.70;99.90;;;;;;5045973;28;20037;-57
2023/08/01 05:04:53;;;;;;;0.00;0.00;;;16.70;99.90;;;;;;5036685;28;20744;-56
2023/08/01 05:07:18;;;;;;;0.00;0.00;;;16.60;99.90;;;;;;5041333;28;20029;-56
2023/08/01 05:09:44;;;;;;;0.15;0.15;;;16.60;99.90;;;;;;5045668;28;20025;-57
2023/08/01 05:12:09;;;;;;;0.10;0.10;;;16.60;99.90;;;;;;5045443;28;20033;-56
2023/08/01 05:14:35;;;;;;;1.63;1.42;;;16.60;99.90;;;;;;5042938;28;20021;-58
2023/08/01 05:17:01;;;;;;;0.70;0.70;;;16.60;99.90;;;;;;5037097;28;20048;-57
2023/08/01 05:19:26;;;;;;;1.58;1.48;;;16.70;99.90;;;;;;5035890;28;20040;-57
2023/08/01 05:21:52;;;;;;;1.45;0.80;;;16.80;99.90;;;;;;5044746;28;20036;-56
2023/08/01 05:24:17;;;;;;;3.35;2.90;;;16.80;99.90;;;;;;5038042;28;20033;-58
2023/08/01 05:26:43;;;;;;;3.10;2.00;;;16.90;99.90;;;;;;5028615;28;20141;-57
2023/08/01 05:29:08;;;;;;;5.10;4.55;;;16.90;99.90;;;;;;5041637;28;20151;-57
2023/08/01 05:31:34;;;;;;;6.55;6.03;;;16.90;99.90;;;;;;5036327;28;20033;-56
2023/08/01 05:34:00;;;;;;;6.90;6.25;;;17.00;99.90;;;;;;5042253;28;20092;-57
2023/08/01 05:36:25;;;;;;;7.07;4.85;;;16.90;99.90;;;;;;5037390;28;20040;-56
2023/08/01 05:38:51;;;;;;;7.70;6.15;;;16.90;99.90;;;;;;5030887;28;20044;-59
2023/08/01 05:41:16;;;;;;;1.92;1.75;;;16.90;99.90;;;;;;5033544;28;20116;-57
2023/08/01 05:43:42;;;;;;;10.48;7.90;;;16.90;99.90;;;;;;5041208;28;20029;-57
2023/08/01 05:46:07;;;;;;;10.10;7.07;;;16.90;99.90;;;;;;5043913;28;20037;-60
2023/08/01 05:48:33;;;;;;;10.90;9.30;;;17.00;99.90;;;;;;5034943;28;20653;-59
2023/08/01 05:50:59;;;;;;;24.15;16.58;;;17.00;99.90;;;;;;5037359;28;20091;-58
2023/08/01 05:53:24;;;;;;;4.40;4.00;;;17.00;99.90;;;;;;5041007;28;20048;-56
2023/08/01 05:55:50;;;;;;;0.00;0.00;;;17.10;99.90;;;;;;5042273;28;20041;-57
2023/08/01 05:58:16;;;;;;;0.00;0.00;;;17.10;99.90;;;;;;5044315;28;20033;-57
2023/08/01 06:00:41;;;;;;;0.00;0.00;;;17.20;99.90;;;;;;5042612;28;20126;-58
2023/08/01 06:03:07;;;;;;;0.00;0.00;;;17.20;99.90;;;;;;5042626;28;20108;-60
2023/08/01 06:05:33;;;;;;;0.98;0.73;;;17.20;99.90;;;;;;5041404;28;20060;-57
2023/08/01 06:07:58;;;;;;;0.85;0.47;;;17.10;99.90;;;;;;5039054;28;20443;-59
2023/08/01 06:10:24;;;;;;;0.00;0.00;;;17.10;99.90;;;;;;5039957;28;20496;-56
2023/08/01 06:12:50;;;;;;;0.00;0.00;;;17.10;99.90;;;;;;5041867;28;20051;-57
2023/08/01 06:15:16;;;;;;;1.45;1.25;;;17.20;99.90;;;;;;5040593;28;20033;-56
2023/08/01 06:17:41;;;;;;;0.00;0.00;;;17.10;99.90;;;;;;5036555;28;20041;-58
2023/08/01 06:20:07;;;;;;;1.85;1.75;;;17.10;99.90;;;;;;5042228;28;20061;-57
2023/08/01 06:22:33;;;;;;;2.20;1.63;;;17.20;99.90;;;;;;5042300;28;20507;-59
2023/08/01 06:24:58;;;;;;;0.28;0.28;;;17.30;99.90;;;;;;5041248;28;20044;-58
2023/08/01 06:27:25;;;;;;;0.00;0.00;;;17.30;99.90;;;;;;5040844;28;20112;-57
2023/08/01 06:29:50;;;;;;;0.05;0.05;;;17.30;99.90;;;;;;5041416;28;20045;-57
2023/08/01 06:32:16;;;;;;;0.10;0.10;;;17.20;99.90;;;;;;5039523;28;20072;-57
2023/08/01 06:34:41;;;;;;;0.00;0.00;;;17.30;99.90;;;;;;5035585;28;20038;-57
2023/08/01 06:37:07;;;;;;;0.00;0.00;;;17.20;99.90;;;;;;5038265;28;20044;-57
2023/08/01 06:39:33;;;;;;;0.00;0.00;;;17.30;99.90;;;;;;5037189;28;20105;-57
2023/08/01 06:41:58;;;;;;;0.10;0.10;;;17.30;99.90;;;;;;5026042;28;20712;-58
2023/08/01 06:44:24;;;;;;;0.00;0.00;;;17.40;99.90;;;;;;5039930;28;20047;-58
2023/08/01 06:46:49;;;;;;;0.00;0.00;;;17.20;99.90;;;;;;5037267;28;20041;-57
2023/08/01 06:49:15;;;;;;;0.00;0.00;;;17.30;99.90;;;;;;5039170;28;20037;-58
2023/08/01 06:51:42;;;;;;;0.00;0.00;;;17.30;99.90;;;;;;5038612;28;20040;-57
2023/08/01 06:54:08;;;;;;;0.00;0.00;;;17.50;99.90;;;;;;5033302;28;20040;-57
2023/08/01 06:56:33;;;;;;;0.00;0.00;;;17.50;99.90;;;;;;5037423;28;20041;-57
2023/08/01 06:58:59;;;;;;;0.00;0.00;;;17.50;99.90;;;;;;5034762;28;20103;-57
2023/08/01 07:01:25;;;;;;;0.00;0.00;;;17.40;99.90;;;;;;5035361;28;20036;-57
2023/08/01 07:03:53;;;;;;;0.00;0.00;;;17.40;99.90;;;;;;5031184;28;20453;-56
2023/08/01 07:06:19;;;;;;;0.00;0.00;;;17.50;99.90;;;;;;5034582;28;20037;-56
2023/08/01 07:08:45;;;;;;;0.00;0.00;;;17.50;99.90;;;;;;5033884;28;21242;-58
2023/08/01 07:11:11;;;;;;;0.00;0.00;;;17.50;99.90;;;;;;5037817;28;20032;-58
2023/08/01 07:13:36;;;;;;;0.00;0.00;;;17.60;99.90;;;;;;5035529;28;20033;-57
2023/08/01 07:16:02;;;;;;;0.00;0.00;;;17.70;99.90;;;;;;5035958;28;20116;-58
2023/08/01 07:18:27;;;;;;;0.00;0.00;;;17.80;99.90;;;;;;5039367;28;20320;-58
2023/08/01 07:21:00;;;;;;;0.00;0.00;;;17.80;99.90;;;;;;5037323;28;20116;-58
2023/08/01 07:23:26;;;;;;;0.00;0.00;;;17.80;99.90;;;;;;5036125;28;20171;-57
2023/08/01 07:25:52;;;;;;;0.00;0.00;;;17.80;99.90;;;;;;5035872;28;20120;-58
2023/08/01 07:28:17;;;;;;;0.00;0.00;;;17.70;99.90;;;;;;5036707;28;20040;-58
2023/08/01 07:30:43;;;;;;;0.00;0.00;;;17.60;99.90;;;;;;5028420;28;20560;-58
2023/08/01 07:33:08;;;;;;;0.00;0.00;;;17.60;99.90;;;;;;5034841;28;20041;-58
2023/08/01 07:35:34;;;;;;;0.00;0.00;;;17.50;99.90;;;;;;5038047;28;20063;-58
2023/08/01 07:37:59;;;;;;;0.00;0.00;;;17.50;99.90;;;;;;5035100;28;20088;-57
2023/08/01 07:40:25;;;;;;;0.00;0.00;;;17.60;99.90;;;;;;5036467;28;20041;-58
2023/08/01 07:42:51;;;;;;;0.00;0.00;;;17.70;99.90;;;;;;5025608;28;20449;-58
2023/08/01 07:45:18;;;;;;;0.00;0.00;;;17.70;99.90;;;;;;5038547;28;20055;-58
2023/08/01 07:47:44;;;;;;;0.00;0.00;;;17.80;99.90;;;;;;5038212;28;20094;-59
2023/08/01 07:50:10;;;;;;;0.00;0.00;;;18.00;99.90;;;;;;5040390;28;20033;-57
2023/08/01 07:52:35;;;;;;;0.00;0.00;;;18.00;99.90;;;;;;5039088;28;21469;-58
2023/08/01 07:55:01;;;;;;;0.00;0.00;;;18.20;99.90;;;;;;5039862;28;20028;-58
2023/08/01 07:57:26;;;;;;;0.00;0.00;;;18.40;99.90;;;;;;5031453;28;20099;-58
2023/08/01 07:59:52;;;;;;;0.00;0.00;;;18.50;99.90;;;;;;5040932;28;20045;-59
2023/08/01 08:02:18;;;;;;;0.00;0.00;;;18.40;99.90;;;;;;5035789;28;20037;-58
2023/08/01 08:04:43;;;;;;;0.00;0.00;;;18.40;99.90;;;;;;5041079;28;20045;-58
2023/08/01 08:07:09;;;;;;;0.00;0.00;;;18.30;99.90;;;;;;5039241;28;20090;-58
2023/08/01 08:09:34;;;;;;;0.00;0.00;;;18.30;99.90;;;;;;5055760;28;20226;-58
2023/08/01 08:12:00;;;;;;;0.00;0.00;;;18.30;99.90;;;;;;5032756;28;20628;-59
2023/08/01 08:14:26;;;;;;;0.00;0.00;;;18.10;99.90;;;;;;5036447;28;20119;-62
2023/08/01 08:16:51;;;;;;;0.00;0.00;;;18.10;99.90;;;;;;5030752;28;20465;-58
2023/08/01 08:19:17;;;;;;;0.00;0.00;;;18.20;99.90;;;;;;5030625;28;20392;-58
2023/08/01 08:21:43;;;;;;;0.00;0.00;;;18.20;99.90;;;;;;5036676;28;20033;-58
2023/08/01 08:24:08;;;;;;;0.00;0.00;;;18.20;99.90;;;;;;5039022;28;20784;-58
2023/08/01 08:26:37;;;;;;;0.00;0.00;;;18.20;99.90;;;;;;5036100;28;20041;-59
2023/08/01 08:29:04;;;;;;;0.00;0.00;;;18.30;99.90;;;;;;5035135;28;20029;-59
2023/08/01 08:31:30;;;;;;;0.00;0.00;;;18.50;99.90;;;;;;5036808;28;20060;-58
2023/08/01 08:33:56;;;;;;;0.00;0.00;;;18.60;99.90;;;;;;5037987;28;20041;-57
2023/08/01 08:36:22;;;;;;;0.00;0.00;;;18.80;99.90;;;;;;5039824;28;20094;-58
2023/08/01 08:38:47;;;;;;;0.00;0.00;;;19.00;99.90;;;;;;5033064;28;20166;-59
2023/08/01 08:41:38;;;;;;;0.00;0.00;;;18.90;99.90;;;;;;5037621;28;20044;-59
2023/08/01 08:44:07;;;;;;;0.00;0.00;;;18.90;99.90;;;;;;5038950;28;20033;-60
2023/08/01 08:46:39;;;;;;;0.00;0.00;;;19.10;99.90;;;;;;5034366;28;20053;-61
2023/08/01 08:49:05;;;;;;;0.00;0.00;;;19.10;99.90;;;;;;5051915;28;20045;-58
2023/08/01 08:51:31;;;;;;;0.00;0.00;;;19.30;99.90;;;;;;5036695;28;20041;-59
2023/08/01 08:53:57;;;;;;;0.00;0.00;;;19.30;99.90;;;;;;5040227;28;20047;-59
2023/08/01 08:56:23;;;;;;;0.00;0.00;;;19.20;99.90;;;;;;5031754;28;20045;-58
2023/08/01 08:58:49;;;;;;;0.00;0.00;;;19.10;99.90;;;;;;5038939;28;20456;-59
2023/08/01 09:01:17;;;;;;;0.00;0.00;;;19.00;99.90;;;;;;5032497;28;20043;-60
2023/08/01 09:03:44;;;;;;;0.00;0.00;;;19.10;99.90;;;;;;5038519;28;20045;-58
2023/08/01 09:06:16;;;;;;;0.00;0.00;;;19.10;99.90;;;;;;5037001;28;20039;-58
2023/08/01 09:08:51;;;;;;;0.00;0.00;;;19.00;99.90;;;;;;5030670;28;20492;-60
2023/08/01 09:11:17;;;;;;;0.00;0.00;;;19.00;99.90;;;;;;5035687;28;20032;-59
2023/08/01 09:13:43;;;;;;;0.00;0.00;;;19.20;99.90;;;;;;5030733;28;20447;-60
2023/08/01 09:16:10;;;;;;;0.00;0.00;;;19.20;99.90;;;;;;5036648;28;20099;-58
2023/08/01 09:18:50;;;;;;;0.00;0.00;;;19.40;99.90;;;;;;5039805;28;20037;-58
2023/08/01 09:21:20;;;;;;;0.00;0.00;;;19.40;99.90;;;;;;5036135;28;20076;-58
2023/08/01 09:23:46;;;;;;;0.00;0.00;;;19.30;99.90;;;;;;5037185;28;20138;-58
2023/08/01 09:26:19;;;;;;;0.00;0.00;;;19.10;99.90;;;;;;5030883;28;20036;-58
2023/08/01 09:29:06;;;;;;;0.00;0.00;;;19.20;99.90;;;;;;5036532;28;20035;-59
2023/08/01 09:31:37;;;;;;;0.00;0.00;;;19.40;99.90;;;;;;5045181;28;20130;-60
2023/08/01 09:34:05;;;;;;;0.00;0.00;;;19.60;99.90;;;;;;5041746;28;20041;-60
2023/08/01 09:36:32;;;;;;;0.00;0.00;;;19.60;99.90;;;;;;5045555;28;20412;-60
2023/08/01 09:39:03;;;;;;;0.00;0.00;;;19.80;99.90;;;;;;5042241;28;20041;-59
2023/08/01 09:41:30;;;;;;;0.00;0.00;;;19.90;99.90;;;;;;5040936;28;20045;-59
2023/08/01 09:43:56;;;;;;;0.00;0.00;;;20.00;99.90;;;;;;5033330;28;21111;-66
2023/08/01 09:46:23;;;;;;;0.00;0.00;;;20.10;99.90;;;;;;5034890;28;20048;-59
2023/08/01 09:48:48;;;;;;;0.00;0.00;;;20.10;99.90;;;;;;5046593;28;20123;-60
2023/08/01 09:51:16;;;;;;;0.00;0.00;;;20.20;99.90;;;;;;5043031;28;20429;-60
2023/08/01 09:53:55;;;;;;;0.00;0.00;;;20.30;99.90;;;;;;5034531;28;20517;-60
2023/08/01 09:56:23;;;;;;;0.00;0.00;;;20.30;99.90;;;;;;5039358;28;20563;-58
2023/08/01 09:58:50;;;;;;;0.00;0.00;;;20.40;99.90;;;;;;5043926;28;20412;-60
2023/08/01 10:01:19;;;;;;;0.00;0.00;;;20.50;99.90;;;;;;5041394;28;20515;-58
2023/08/01 10:03:49;;;;;;;0.00;0.00;;;20.50;99.90;;;;;;5034461;28;20569;-62
2023/08/01 10:06:20;;;;;;;0.00;0.00;;;20.50;99.90;;;;;;5040629;28;20040;-58
2023/08/01 10:08:47;;;;;;;0.00;0.00;;;20.40;99.90;;;;;;5040361;28;20048;-59
2023/08/01 10:11:15;;;;;;;0.00;0.00;;;20.50;99.90;;;;;;5042685;28;20037;-58
2023/08/01 10:13:43;;;;;;;0.00;0.00;;;20.50;99.90;;;;;;5037950;28;20368;-59
2023/08/01 10:16:09;;;;;;;0.00;0.00;;;20.30;99.90;;;;;;5041030;28;20045;-59
2023/08/01 10:18:37;;;;;;;0.00;0.00;;;20.30;99.90;;;;;;5043617;28;20037;-59
2023/08/01 10:21:04;;;;;;;0.00;0.00;;;20.10;99.90;;;;;;5039281;28;20493;-61
2023/08/01 10:23:32;;;;;;;0.00;0.00;;;20.10;99.90;;;;;;5040839;28;20044;-59
2023/08/01 10:26:00;;;;;;;0.00;0.00;;;19.90;99.90;;;;;;5038370;28;20179;-58
2023/08/01 10:28:36;;;;;;;0.00;0.00;;;19.60;99.90;;;;;;5039446;28;20037;-60
2023/08/01 10:31:09;;;;;;;0.00;0.00;;;19.40;99.90;;;;;;5035602;28;20041;-60
2023/08/01 10:33:36;;;;;;;0.00;0.00;;;19.40;99.90;;;;;;5040700;28;20493;-59
2023/08/01 10:36:16;;;;;;;0.00;0.00;;;19.50;99.90;;;;;;5037875;28;20044;-58
2023/08/01 10:38:55;;;;;;;0.00;0.00;;;19.60;99.90;;;;;;5033192;28;20049;-60
2023/08/01 10:41:31;;;;;;;0.00;0.00;;;19.60;99.90;;;;;;5040277;28;20044;-59
2023/08/01 10:44:12;;;;;;;0.00;0.00;;;19.60;99.90;;;;;;5038448;28;20029;-63
2023/08/01 10:46:55;;;;;;;0.00;0.00;;;19.70;99.90;;;;;;5041963;28;20515;-60
2023/08/01 10:49:33;;;;;;;0.00;0.00;;;20.00;99.90;;;;;;5040011;28;20087;-61
2023/08/01 10:51:59;;;;;;;0.00;0.00;;;19.90;99.90;;;;;;5042115;28;20471;-60
2023/08/01 10:54:25;;;;;;;0.00;0.00;;;20.10;99.90;;;;;;5040673;28;20033;-59
2023/08/01 10:56:53;;;;;;;0.00;0.00;;;20.10;99.90;;;;;;5035665;28;20040;-63
2023/08/01 10:59:20;;;;;;;0.00;0.00;;;20.20;99.90;;;;;;5035045;28;20416;-60
2023/08/01 11:01:51;;;;;;;0.00;0.00;;;20.20;99.90;;;;;;5031947;28;20509;-60
2023/08/01 11:04:22;;;;;;;0.00;0.00;;;20.20;99.90;;;;;;5037138;28;20033;-61
2023/08/01 11:06:49;;;;;;;0.00;0.00;;;19.50;99.90;;;;;;5032460;28;20106;-59
2023/08/01 11:09:23;;;;;;;0.00;0.00;;;19.20;99.90;;;;;;5039432;28;20037;-65
2023/08/01 11:11:55;;;;;;;0.00;0.00;;;19.30;99.90;;;;;;5035546;28;20045;-60
2023/08/01 11:14:22;;;;;;;0.00;0.00;;;19.40;99.90;;;;;;5035086;28;20033;-60
2023/08/01 11:16:49;;;;;;;0.00;0.00;;;19.50;99.90;;;;;;5033859;28;20052;-60
2023/08/01 11:19:20;;;;;;;0.00;0.00;;;19.60;99.90;;;;;;5040149;28;20056;-59
2023/08/01 11:21:46;;;;;;;0.00;0.00;;;19.30;99.90;;;;;;5026883;28;20052;-59
2023/08/01 11:24:12;;;;;;;0.00;0.00;;;19.30;99.90;;;;;;5034381;28;20531;-60
2023/08/01 11:26:45;;;;;;;0.00;0.00;;;19.00;99.90;;;;;;5040615;28;20041;-63
2023/08/01 11:29:11;;;;;;;;;;;19.10;99.90;;;;;;5042754;28;20391;-59
2023/08/01 11:31:37;;;;;;;0.00;0.00;;;19.00;99.90;;;;;;5038667;28;20097;-59
2023/08/01 11:34:03;;;;;;;0.00;0.00;;;18.70;99.90;;;;;;5038013;28;20029;-65
2023/08/01 11:36:29;;;;;;;0.00;0.00;;;18.80;99.90;;;;;;5036456;28;20055;-60
2023/08/01 11:38:59;;;;;;;0.00;0.00;;;18.80;99.90;;;;;;5041094;28;20070;-59
2023/08/01 11:41:28;;;;;;;0.00;0.00;;;19.00;99.90;;;;;;5032721;28;20120;-60
2023/08/01 11:43:54;;;;;;;0.00;0.00;;;19.10;99.90;;;;;;5040068;28;20033;-59
2023/08/01 11:46:21;;;;;;;0.00;0.00;;;19.40;99.90;;;;;;5033179;28;20531;-62
2023/08/01 11:48:48;;;;;;;0.00;0.00;;;19.50;99.90;;;;;;5030320;28;20045;-58
2023/08/01 11:51:13;;;;;;;0.00;0.00;;;19.40;99.90;;;;;;5039553;28;20129;-58
2023/08/01 11:53:39;;;;;;;0.00;0.00;;;19.50;99.90;;;;;;5043220;28;20183;-59
2023/08/01 11:56:05;;;;;;;0.00;0.00;;;19.40;99.90;;;;;;5035982;28;20550;-58
2023/08/01 11:58:41;;;;;;;0.00;0.00;;;19.10;99.90;;;;;;5033862;28;20556;-59
2023/08/01 12:01:13;;;;;;;0.00;0.00;;;19.20;99.90;;;;;;5037614;28;20037;-59
2023/08/01 12:03:53;;;;;;;0.00;0.00;;;19.30;99.90;;;;;;5041484;28;20037;-58
2023/08/01 12:06:21;;;;;;;0.00;0.00;;;19.30;99.90;;;;;;5035192;28;20041;-62
2023/08/01 12:08:49;;;;;;;0.00;0.00;;;19.40;99.90;;;;;;5041702;28;20041;-58
2023/08/01 12:11:21;;;;;;;0.00;0.00;;;19.40;99.90;;;;;;5034331;28;20029;-57
2023/08/01 12:13:48;;;;;;;0.00;0.00;;;19.30;99.90;;;;;;5036097;28;20052;-62
2023/08/01 12:16:17;;;;;;;0.00;0.00;;;19.20;99.90;;;;;;5036010;28;20117;-63
2023/08/01 12:18:44;;;;;;;0.00;0.00;;;19.30;99.90;;;;;;5038883;28;20333;-59
2023/08/01 12:21:10;;;;;;;0.00;0.00;;;19.20;99.90;;;;;;5031680;28;20072;-60
2023/08/01 12:23:36;;;;;;;0.00;0.00;;;19.40;99.90;;;;;;5039352;28;20751;-60
2023/08/01 12:26:01;;;;;;;0.00;0.00;;;19.50;99.90;;;;;;5038562;28;20141;-58
2023/08/01 12:28:27;;;;;;;0.00;0.00;;;19.60;99.90;;;;;;5037527;28;20033;-62
2023/08/01 12:30:53;;;;;;;0.00;0.00;;;19.50;99.90;;;;;;5040149;28;20033;-59
2023/08/01 12:33:18;;;;;;;0.00;0.00;;;19.60;99.90;;;;;;5041558;28;20092;-58
2023/08/01 12:35:44;;;;;;;0.00;0.00;;;19.70;99.90;;;;;;5041400;28;20033;-58
2023/08/01 12:38:10;;;;;;;0.00;0.00;;;19.80;99.90;;;;;;5038433;28;20087;-58
2023/08/01 12:40:35;;;;;;;0.00;0.00;;;19.90;99.90;;;;;;5039725;28;20516;-58
2023/08/01 12:43:01;;;;;;;0.00;0.00;;;20.00;99.90;;;;;;5034095;28;20543;-58